Manitowoc, Wisconsin
Current Conditions -  °F | °C
As of 12:56 PM on Friday 21 Nov 2014 (Local Time) from KMTW Reporting Station
Clear Clear  
Wind Chill: 19°   Ceiling: Unl
Heat Index: 30°   Visibility: 10mi
Dew Point:   Wind: 15mph
Humidity: 36%   Direction: 210°SSW
Pressure: 30.31"   Gusts: NA
Location:  44.11°N, 87.66°W
Report Text: KMTW 211856Z AUTO 21013KT 10SM CLR M01/M14 A3031 RMK AO2 SLP290 T10111144 FZRANO
Loading
Personal Weather Stations






























Interactive Weather Map New forecast layout! Learn more

10-Day Weather Forecast

Advertisements
Track Severe Weather on mobile